PWSweather.com
Personal Weather Stations
Station Observations
STAW2
Wielkopolska, Staw 2PL 62-420

WielkopolskaStaw 2PL 62-420

Lat: 52.31954663122409, Lon: 17.747787594926194

Elevation: 301.84

Station Type: Davis Vantage Pro2

http://pogoda-staw.pl

Latest ConditionsUpdated 6:15:00 AM GMT+01:01 Friday, Jun 23, 2017
Currently Today's Max Today's Min Today's Average
Temperature 62.9°F17.2°C 66.4°F19.1°C 62.4°F16.9°C 63.4°F17.4°C
Dew Point 61.5°F16.4°C 61.7°F16.5°C 58.8°F14.9°C 60.8°F16.0°C
Winds 5.8 mph WSW9.3 kmh WSW 11.5 mph WSW18.5 kmh WSW - 2.9 mph 4.7 kmh
Wind Gusts 9.2 mph14.8 kmh 19.6 mph31.5 kmh - -
Humidity 95% 96% 80% 91%
Pressure 29.66 in1004.4 mb 29.75 in1007.5 mb 29.62 in1003.0 mb -
Precipitation - 0.07 in1.8 mm - -
Hour Temp Dew Point Humidity Winds Wind Gusts Pressure Precip Precip Rate Daily Precip Total
06:15 AM 62.9°F17.2°C 61.5°F16.4°C 95% 5.8 mph WSW9.3 kmh WSW 9.2 mph14.8 kmh 29.66 in1004.4 mb - 0.00 in0.0 mm 0.07 in1.8 mm
06:00 AM 62.9°F17.2°C 61.7°F16.5°C 96% 2.3 mph WSW3.7 kmh WSW 3.5 mph5.6 kmh 29.66 in1004.4 mb - 0.00 in0.0 mm 0.07 in1.8 mm
05:45 AM 62.6°F17.0°C 61.1°F16.2°C 95% Calm Calm -- 29.65 in1004.1 mb - 0.00 in0.0 mm 0.07 in1.8 mm
05:30 AM 62.5°F16.9°C 61.0°F16.1°C 95% Calm Calm -- 29.65 in1004.1 mb - 0.00 in0.0 mm 0.07 in1.8 mm
05:15 AM 62.5°F16.9°C 61.3°F16.3°C 96% Calm Calm 1.2 mph1.9 kmh 29.66 in1004.4 mb - 0.00 in0.0 mm 0.07 in1.8 mm
05:00 AM 62.5°F16.9°C 61.3°F16.3°C 96% Calm Calm -- 29.65 in1004.1 mb - 0.00 in0.0 mm 0.07 in1.8 mm
04:45 AM 62.4°F16.9°C 60.9°F16.1°C 95% 1.2 mph SW1.9 kmh SW 3.5 mph5.6 kmh 29.66 in1004.4 mb - 0.00 in0.0 mm 0.07 in1.8 mm
04:30 AM 62.4°F16.9°C 60.9°F16.1°C 95% 3.5 mph S5.6 kmh S 3.5 mph5.6 kmh 29.63 in1003.4 mb - 0.00 in0.0 mm 0.07 in1.8 mm
04:15 AM 62.5°F16.9°C 61.0°F16.1°C 95% 4.6 mph SE7.4 kmh SE 9.2 mph14.8 kmh 29.63 in1003.4 mb - 0.00 in0.0 mm 0.07 in1.8 mm
04:00 AM 62.7°F17.1°C 61.2°F16.2°C 95% 3.5 mph SE5.6 kmh SE 6.9 mph11.1 kmh 29.62 in1003.0 mb - 0.00 in0.0 mm 0.07 in1.8 mm
03:45 AM 62.8°F17.1°C 61.4°F16.3°C 95% 1.2 mph SE1.9 kmh SE 4.6 mph7.4 kmh 29.63 in1003.4 mb - 0.01 in0.3 mm 0.07 in1.8 mm
03:30 AM 62.9°F17.2°C 61.1°F16.2°C 94% Calm Calm -- 29.65 in1004.1 mb - 0.01 in0.3 mm 0.06 in1.5 mm
03:15 AM 62.9°F17.2°C 61.1°F16.2°C 94% 2.3 mph SSE3.7 kmh SSE 3.5 mph5.6 kmh 29.66 in1004.4 mb - 0.01 in0.3 mm 0.06 in1.5 mm
03:00 AM 63.0°F17.2°C 60.9°F16.1°C 93% 3.5 mph SE5.6 kmh SE 3.5 mph5.6 kmh 29.67 in1004.7 mb - 0.01 in0.3 mm 0.05 in1.3 mm
02:45 AM 62.9°F17.2°C 60.8°F16.0°C 93% Calm Calm -- 29.68 in1005.1 mb - 0.01 in0.3 mm 0.04 in1.0 mm
02:30 AM 63.0°F17.2°C 60.6°F15.9°C 92% Calm Calm -- 29.69 in1005.4 mb - 0.00 in0.0 mm 0.03 in0.8 mm
02:15 AM 63.3°F17.4°C 60.6°F15.9°C 91% Calm Calm -- 29.70 in1005.8 mb - 0.01 in0.3 mm 0.03 in0.8 mm
02:00 AM 63.6°F17.6°C 60.6°F15.9°C 90% Calm Calm -- 29.70 in1005.8 mb - 0.00 in0.0 mm 0.02 in0.5 mm
01:45 AM 64.0°F17.8°C 60.7°F15.9°C 89% 1.2 mph WSW1.9 kmh WSW 2.3 mph3.7 kmh 29.70 in1005.8 mb - 0.00 in0.0 mm 0.02 in0.5 mm
01:30 AM 64.4°F18.0°C 60.7°F15.9°C 88% 2.3 mph W3.7 kmh W 3.5 mph5.6 kmh 29.70 in1005.8 mb - 0.00 in0.0 mm 0.02 in0.5 mm
01:15 AM 64.6°F18.1°C 60.6°F15.9°C 87% 3.5 mph W5.6 kmh W 9.2 mph14.8 kmh 29.71 in1006.1 mb - 0.00 in0.0 mm 0.02 in0.5 mm
01:00 AM 64.6°F18.1°C 60.3°F15.7°C 86% 6.9 mph SW11.1 kmh SW 12.7 mph20.4 kmh 29.72 in1006.4 mb - 0.00 in0.0 mm 0.02 in0.5 mm
12:45 AM 64.6°F18.1°C 60.3°F15.7°C 86% 8.1 mph WSW13.0 kmh WSW 13.8 mph22.2 kmh 29.72 in1006.4 mb - 0.00 in0.0 mm 0.02 in0.5 mm
12:30 AM 65.2°F18.4°C 60.6°F15.9°C 85% 5.8 mph WSW9.3 kmh WSW 8.1 mph13.0 kmh 29.72 in1006.4 mb - 0.02 in0.5 mm 0.02 in0.5 mm
12:15 AM 66.4°F19.1°C 60.8°F16.0°C 82% 6.9 mph WSW11.1 kmh WSW 9.2 mph14.8 kmh 29.73 in1006.8 mb - 0.01 in0.3 mm 0.01 in0.3 mm
12:00 AM 65.1°F18.4°C 58.8°F14.9°C 80% 11.5 mph WSW18.5 kmh WSW 19.6 mph31.5 kmh 29.75 in1007.5 mb - 0.00 in0.0 mm 0.00 in0.0 mm